createdAt,value
2023-01-09T00:02:06.489Z,99154.06
2023-01-09T00:04:51.781Z,99151.19
2023-01-09T00:07:32.395Z,99143.13
2023-01-09T00:10:15.388Z,99146.25
2023-01-09T00:12:49.995Z,99137.34
2023-01-09T00:15:33.511Z,99140.88
2023-01-09T00:18:11.719Z,99144.78
2023-01-09T00:20:58.263Z,99143.16
2023-01-09T00:23:33.917Z,99143.53
2023-01-09T00:26:18.505Z,99135.09
2023-01-09T00:28:55.711Z,99143.97
2023-01-09T00:31:36.552Z,99142.72
2023-01-09T00:34:25.991Z,99137.53
2023-01-09T00:36:58.230Z,99133.41
2023-01-09T00:39:36.460Z,99129.09
2023-01-09T00:42:25.840Z,99131.75
2023-01-09T00:45:14.502Z,99128.03
2023-01-09T00:47:48.339Z,99120.75
2023-01-09T00:50:35.178Z,99117.03
2023-01-09T00:53:26.370Z,99117.19
2023-01-09T00:56:16.856Z,99109.75
2023-01-09T00:58:58.506Z,99106.16
2023-01-09T01:01:39.766Z,99105.13
2023-01-09T01:04:28.179Z,99110.88
2023-01-09T01:07:25.115Z,99113.53
2023-01-09T01:10:03.041Z,99110.44
2023-01-09T01:12:42.919Z,99105.66
2023-01-09T01:15:26.877Z,99101.25
2023-01-09T01:18:16.538Z,99102.69
2023-01-09T01:20:52.578Z,99098.94
2023-01-09T01:23:38.869Z,99103.78
2023-01-09T01:26:18.101Z,99092.50
2023-01-09T01:28:50.698Z,99087.59
2023-01-09T01:31:26.112Z,99081.91
2023-01-09T01:34:03.286Z,99079.75
2023-01-09T01:36:48.790Z,99075.72
2023-01-09T01:39:24.485Z,99067.06
2023-01-09T01:42:02.133Z,99071.06
2023-01-09T01:45:02.091Z,99068.78
2023-01-09T01:48:04.018Z,99048.22
2023-01-09T01:50:46.612Z,99045.22
2023-01-09T01:53:27.267Z,99047.75
2023-01-09T01:56:21.847Z,99036.53
2023-01-09T01:59:13.287Z,99035.25
2023-01-09T02:01:57.691Z,99023.41
2023-01-09T02:04:35.523Z,99036.44
2023-01-09T02:07:11.105Z,99019.84
2023-01-09T02:09:47.302Z,99019.38
2023-01-09T02:12:28.969Z,99024.31
2023-01-09T02:15:17.330Z,99035.91
2023-01-09T02:18:19.677Z,99028.66
2023-01-09T02:21:13.607Z,99020.50
2023-01-09T02:24:04.801Z,99014.28
2023-01-09T02:26:56.010Z,99006.88
2023-01-09T02:29:38.116Z,99011.81
2023-01-09T02:32:32.991Z,99011.72
2023-01-09T02:35:51.081Z,99008.53
2023-01-09T02:38:45.593Z,99004.50
2023-01-09T02:41:31.855Z,99004.13
2023-01-09T02:44:36.135Z,99009.22
2023-01-09T02:47:34.569Z,99007.78
2023-01-09T02:50:17.736Z,98999.59
2023-01-09T02:53:25.410Z,98999.16
2023-01-09T02:56:11.951Z,99000.88
2023-01-09T02:59:28.663Z,99002.59
2023-01-09T03:02:34.602Z,99000.06
2023-01-09T03:05:24.413Z,98993.16
2023-01-09T03:08:18.692Z,98990.59
2023-01-09T03:11:14.868Z,98991.56
2023-01-09T03:14:01.325Z,98994.19
2023-01-09T03:16:48.143Z,98997.19
2023-01-09T03:19:28.255Z,98987.75
2023-01-09T03:22:09.094Z,98979.47
2023-01-09T03:24:54.705Z,98973.50
2023-01-09T03:27:33.052Z,98970.81
2023-01-09T03:30:13.828Z,98970.97
2023-01-09T03:33:08.137Z,98964.53
2023-01-09T03:35:45.694Z,98976.38
2023-01-09T03:38:24.552Z,98974.69
2023-01-09T03:41:05.197Z,98972.06
2023-01-09T03:43:45.925Z,98959.47
2023-01-09T03:46:27.703Z,98960.09
2023-01-09T03:49:00.817Z,98958.50
2023-01-09T03:51:44.439Z,98957.34
2023-01-09T03:54:31.532Z,98956.75
2023-01-09T03:57:11.538Z,98953.88
2023-01-09T03:59:52.887Z,98944.56
2023-01-09T04:02:36.717Z,98953.69
2023-01-09T04:05:15.102Z,98951.81
2023-01-09T04:07:58.487Z,98948.47
2023-01-09T04:10:38.340Z,98946.16
2023-01-09T04:13:16.379Z,98946.22
2023-01-09T04:15:49.223Z,98949.59
2023-01-09T04:18:27.546Z,98946.66
2023-01-09T04:20:59.559Z,98950.09
2023-01-09T04:23:37.477Z,98951.31
2023-01-09T04:26:17.336Z,98952.97
2023-01-09T04:28:46.601Z,98959.22
2023-01-09T04:31:26.900Z,98962.94
2023-01-09T04:34:04.332Z,98958.44
2023-01-09T04:36:37.061Z,98953.50
2023-01-09T04:39:11.467Z,98950.25
2023-01-09T04:41:49.784Z,98960.66
2023-01-09T04:44:37.940Z,98952.84
2023-01-09T04:47:27.201Z,98955.72
2023-01-09T04:50:04.731Z,98958.81
2023-01-09T04:52:48.443Z,98959.56
2023-01-09T04:55:17.691Z,98961.28
2023-01-09T04:57:57.892Z,98968.91
2023-01-09T05:00:33.562Z,98968.06
2023-01-09T05:03:22.008Z,98977.56
2023-01-09T05:05:57.041Z,98979.75
2023-01-09T05:08:34.662Z,98977.34
2023-01-09T05:11:13.528Z,98966.22
2023-01-09T05:13:54.368Z,98970.97
2023-01-09T05:16:32.144Z,98973.63
2023-01-09T05:19:15.383Z,98971.97
2023-01-09T05:22:02.057Z,98961.47
2023-01-09T05:24:34.098Z,98947.97
2023-01-09T05:27:09.721Z,98946.31
2023-01-09T05:29:51.871Z,98958.59
2023-01-09T05:32:18.831Z,98958.44
2023-01-09T05:34:59.389Z,98952.69
2023-01-09T05:37:40.162Z,98952.06
2023-01-09T05:40:20.676Z,98950.25
2023-01-09T05:43:04.881Z,98951.53
2023-01-09T05:45:45.543Z,98948.19
2023-01-09T05:48:25.750Z,98946.97
2023-01-09T05:51:06.474Z,98938.59
2023-01-09T05:53:39.163Z,98938.16
2023-01-09T05:56:22.699Z,98929.94
2023-01-09T05:59:03.432Z,98923.56
2023-01-09T06:01:41.106Z,98917.59
2023-01-09T06:04:21.845Z,98915.34
2023-01-09T06:07:10.066Z,98925.44
2023-01-09T06:09:56.677Z,98924.19
2023-01-09T06:12:34.689Z,98929.38
2023-01-09T06:15:09.141Z,98942.34
2023-01-09T06:17:52.105Z,98939.25
2023-01-09T06:20:35.322Z,98947.31
2023-01-09T06:23:12.203Z,98946.47
2023-01-09T06:26:00.192Z,98956.41
2023-01-09T06:28:45.912Z,98947.09
2023-01-09T06:31:26.663Z,98950.22
2023-01-09T06:34:01.970Z,98943.41
2023-01-09T06:36:42.836Z,98962.81
2023-01-09T06:39:20.597Z,98960.53
2023-01-09T06:42:03.979Z,98961.13
2023-01-09T06:44:48.419Z,98964.63
2023-01-09T06:47:31.118Z,98968.56
2023-01-09T06:50:09.290Z,98962.38
2023-01-09T06:52:53.074Z,98965.25
2023-01-09T06:55:30.205Z,98966.50
2023-01-09T06:58:05.846Z,98975.59
2023-01-09T07:00:52.327Z,98966.50
2023-01-09T07:03:27.603Z,98971.44
2023-01-09T07:06:05.680Z,98964.84
2023-01-09T07:08:35.456Z,98977.22
2023-01-09T07:11:13.418Z,98971.47
2023-01-09T07:13:48.498Z,98966.31
2023-01-09T07:16:24.372Z,98961.97
2023-01-09T07:19:05.449Z,98955.00
2023-01-09T07:21:46.025Z,98957.03
2023-01-09T07:24:29.137Z,98957.25
2023-01-09T07:27:06.809Z,98956.84
2023-01-09T07:29:48.511Z,98958.28
2023-01-09T07:32:26.767Z,98938.06
2023-01-09T07:34:59.511Z,98934.56
2023-01-09T07:37:34.268Z,98942.19
2023-01-09T07:40:10.527Z,98941.94
2023-01-09T07:42:43.238Z,98943.81
2023-01-09T07:45:24.891Z,98937.81
2023-01-09T07:48:07.713Z,98934.56
2023-01-09T07:50:46.495Z,98933.50
2023-01-09T07:53:15.967Z,98933.50
2023-01-09T07:56:06.049Z,98917.41
2023-01-09T07:58:46.787Z,98912.44
2023-01-09T08:01:32.543Z,98916.75
2023-01-09T08:04:02.770Z,98921.94
2023-01-09T08:06:41.749Z,98914.88
2023-01-09T08:09:29.027Z,98918.59
2023-01-09T08:12:09.706Z,98918.53
2023-01-09T08:14:49.342Z,98930.44
2023-01-09T08:17:32.371Z,98934.97
2023-01-09T08:20:10.981Z,98925.09
2023-01-09T08:22:57.798Z,98927.13
2023-01-09T08:25:40.504Z,98922.41
2023-01-09T08:28:17.551Z,98917.63
2023-01-09T08:31:07.583Z,98918.06
2023-01-09T08:33:42.297Z,98917.25
2023-01-09T08:36:23.026Z,98917.88
2023-01-09T08:38:55.470Z,98915.63
2023-01-09T08:41:49.402Z,98923.63
2023-01-09T08:44:45.914Z,98918.88
2023-01-09T08:47:40.565Z,98926.53
2023-01-09T08:50:24.323Z,98924.69
2023-01-09T08:53:07.619Z,98919.81
2023-01-09T08:55:51.777Z,98912.38
2023-01-09T08:58:30.166Z,98937.50
2023-01-09T09:01:10.587Z,98941.41
2023-01-09T09:03:48.330Z,98937.47
2023-01-09T09:06:25.560Z,98923.88
2023-01-09T09:09:04.018Z,98917.50
2023-01-09T09:11:39.742Z,98915.63
2023-01-09T09:14:30.729Z,98910.84
2023-01-09T09:17:03.763Z,98924.16
2023-01-09T09:19:41.512Z,98914.25
2023-01-09T09:22:14.240Z,98907.44
2023-01-09T09:24:47.670Z,98914.50
2023-01-09T09:27:25.449Z,98898.56
2023-01-09T09:30:00.171Z,98901.00
2023-01-09T09:32:37.025Z,98897.09
2023-01-09T09:35:21.280Z,98881.03
2023-01-09T09:38:10.095Z,98873.25
2023-01-09T09:41:37.736Z,98857.22
2023-01-09T09:44:52.627Z,98856.31
2023-01-09T09:47:43.260Z,98850.78
2023-01-09T09:50:24.812Z,98849.91
2023-01-09T09:53:09.809Z,98856.41
2023-01-09T09:55:45.974Z,98860.88
2023-01-09T09:58:22.960Z,98851.75
2023-01-09T10:01:01.958Z,98853.63
2023-01-09T10:03:48.654Z,98851.94
2023-01-09T10:06:26.574Z,98845.56
2023-01-09T10:09:28.732Z,98845.00
2023-01-09T10:12:33.081Z,98846.59
2023-01-09T10:15:20.891Z,98843.34
2023-01-09T10:18:07.609Z,98841.53
2023-01-09T10:20:56.724Z,98825.81
2023-01-09T10:23:58.895Z,98825.00
2023-01-09T10:27:00.911Z,98833.25
2023-01-09T10:29:52.312Z,98845.88
2023-01-09T10:32:57.250Z,98827.72
2023-01-09T10:35:51.078Z,98833.00
2023-01-09T10:38:41.269Z,98818.31
2023-01-09T10:41:26.990Z,98818.56
2023-01-09T10:44:25.962Z,98825.69
2023-01-09T10:47:12.628Z,98818.91
2023-01-09T10:49:51.146Z,98823.84
2023-01-09T10:52:36.919Z,98816.22
2023-01-09T10:55:28.049Z,98812.13
2023-01-09T10:58:14.783Z,98807.72
2023-01-09T11:00:53.547Z,98806.25
2023-01-09T11:03:32.302Z,98806.44
2023-01-09T11:06:35.199Z,98801.31
2023-01-09T11:09:11.333Z,98791.97
2023-01-09T11:11:54.447Z,98799.56
2023-01-09T11:14:39.001Z,98796.72
2023-01-09T11:17:33.944Z,98788.22
2023-01-09T11:20:26.905Z,98803.91
2023-01-09T11:23:25.049Z,98794.19
2023-01-09T11:26:10.271Z,98783.28
2023-01-09T11:29:03.358Z,98774.22
2023-01-09T11:31:58.723Z,98776.28
2023-01-09T11:34:43.809Z,98768.41
2023-01-09T11:38:01.520Z,98758.81
2023-01-09T11:40:40.779Z,98754.03
2023-01-09T11:43:28.566Z,98747.53
2023-01-09T11:46:24.509Z,98736.63
2023-01-09T11:49:08.452Z,98740.75
2023-01-09T11:51:44.509Z,98740.16
2023-01-09T11:54:37.864Z,98734.13
2023-01-09T11:57:16.671Z,98742.81
2023-01-09T12:00:04.487Z,98744.44
2023-01-09T12:03:16.231Z,98748.03
2023-01-09T12:06:13.443Z,98748.44
2023-01-09T12:09:12.877Z,98744.81
2023-01-09T12:12:55.864Z,98739.44
2023-01-09T12:16:22.331Z,98744.19
2023-01-09T12:19:06.735Z,98737.88
2023-01-09T12:21:57.551Z,98741.94
2023-01-09T12:25:05.493Z,98736.34
2023-01-09T12:28:13.888Z,98723.72
2023-01-09T12:31:21.462Z,98729.09
2023-01-09T12:34:38.134Z,98722.41
2023-01-09T12:38:05.485Z,98722.47
2023-01-09T12:41:08.164Z,98731.00
2023-01-09T12:44:11.459Z,98720.34
2023-01-09T12:47:38.671Z,98714.22
2023-01-09T12:50:34.480Z,98704.63
2023-01-09T12:53:28.333Z,98701.00
2023-01-09T12:56:18.149Z,98698.59
2023-01-09T12:59:05.595Z,98696.34
2023-01-09T13:02:15.898Z,98687.81
2023-01-09T13:05:07.052Z,98676.69
2023-01-09T13:07:51.510Z,98684.38
2023-01-09T13:10:34.481Z,98684.56
2023-01-09T13:13:24.399Z,98690.88
2023-01-09T13:16:19.551Z,98695.69
2023-01-09T13:19:04.771Z,98686.63
2023-01-09T13:21:55.064Z,98682.41
2023-01-09T13:24:52.021Z,98685.72
2023-01-09T13:27:39.617Z,98682.03
2023-01-09T13:30:28.367Z,98682.19
2023-01-09T13:33:43.426Z,98686.91
2023-01-09T13:36:47.363Z,98686.91
2023-01-09T13:39:35.373Z,98690.03
2023-01-09T13:42:38.850Z,98694.56
2023-01-09T13:45:26.907Z,98693.94
2023-01-09T13:48:20.483Z,98691.91
2023-01-09T13:51:36.636Z,98687.78
2023-01-09T13:54:33.647Z,98686.91
2023-01-09T13:57:43.883Z,98685.63
2023-01-09T14:00:34.497Z,98685.91
2023-01-09T14:03:31.604Z,98687.97
2023-01-09T14:06:34.972Z,98686.72
2023-01-09T14:09:29.880Z,98686.91
2023-01-09T14:12:17.739Z,98684.66
2023-01-09T14:15:01.337Z,98686.00
2023-01-09T14:17:44.269Z,98686.28
2023-01-09T14:20:52.763Z,98688.69
2023-01-09T14:24:06.467Z,98695.53
2023-01-09T14:26:48.271Z,98692.53
2023-01-09T14:29:45.427Z,98690.47
2023-01-09T14:32:29.828Z,98682.16
2023-01-09T14:35:19.967Z,98681.34
2023-01-09T14:38:09.684Z,98686.63
2023-01-09T14:41:13.746Z,98684.16
2023-01-09T14:44:03.701Z,98675.88
2023-01-09T14:46:50.529Z,98676.69
2023-01-09T14:49:34.779Z,98672.56
2023-01-09T14:52:39.906Z,98673.81
2023-01-09T14:55:39.879Z,98671.75
2023-01-09T14:58:45.002Z,98671.75
2023-01-09T15:01:26.533Z,98674.44
2023-01-09T15:04:46.030Z,98670.94
2023-01-09T15:07:56.581Z,98677.78
2023-01-09T15:10:37.514Z,98680.41
2023-01-09T15:13:37.091Z,98671.72
2023-01-09T15:16:20.655Z,98670.53
2023-01-09T15:19:07.163Z,98674.88
2023-01-09T15:22:04.430Z,98674.91
2023-01-09T15:24:47.932Z,98679.31
2023-01-09T15:27:26.521Z,98680.06
2023-01-09T15:30:28.191Z,98682.81
2023-01-09T15:33:14.523Z,98688.16
2023-01-09T15:36:02.136Z,98690.84
2023-01-09T15:38:50.484Z,98691.84
2023-01-09T15:41:56.856Z,98696.63
2023-01-09T15:44:44.798Z,98695.28
2023-01-09T15:47:29.507Z,98695.91
2023-01-09T15:50:18.254Z,98701.88
2023-01-09T15:53:11.026Z,98688.28
2023-01-09T15:56:05.596Z,98690.03
2023-01-09T15:58:47.758Z,98687.97
2023-01-09T16:02:07.590Z,98692.09
2023-01-09T16:04:59.414Z,98672.69
2023-01-09T16:07:45.876Z,98669.81
2023-01-09T16:11:02.715Z,98666.50
2023-01-09T16:13:55.104Z,98666.13
2023-01-09T16:16:45.239Z,98665.47
2023-01-09T16:20:02.755Z,98653.41
2023-01-09T16:22:57.191Z,98656.69
2023-01-09T16:25:46.414Z,98653.00
2023-01-09T16:28:27.124Z,98643.09
2023-01-09T16:31:18.824Z,98644.94
2023-01-09T16:34:11.483Z,98646.38
2023-01-09T16:36:54.017Z,98637.25
2023-01-09T16:39:31.976Z,98629.84
2023-01-09T16:42:28.035Z,98631.56
2023-01-09T16:45:16.107Z,98634.78
2023-01-09T16:48:03.451Z,98626.75
2023-01-09T16:50:46.821Z,98635.13
2023-01-09T16:53:33.298Z,98630.44
2023-01-09T16:56:16.088Z,98627.03
2023-01-09T16:59:00.573Z,98621.19
2023-01-09T17:01:44.279Z,98620.03
2023-01-09T17:04:22.426Z,98621.63
2023-01-09T17:07:06.783Z,98627.59
2023-01-09T17:10:03.632Z,98628.78
2023-01-09T17:12:49.222Z,98631.47
2023-01-09T17:15:32.444Z,98628.13
2023-01-09T17:18:19.480Z,98617.63
2023-01-09T17:20:57.591Z,98621.72
2023-01-09T17:23:32.845Z,98609.16
2023-01-09T17:26:35.060Z,98597.66
2023-01-09T17:29:21.264Z,98606.31
2023-01-09T17:31:56.498Z,98606.34
2023-01-09T17:34:43.193Z,98601.16
2023-01-09T17:37:27.181Z,98598.69
2023-01-09T17:40:19.637Z,98591.84
2023-01-09T17:42:57.230Z,98594.53
2023-01-09T17:45:41.121Z,98599.28
2023-01-09T17:48:30.601Z,98607.50
2023-01-09T17:51:07.413Z,98607.66
2023-01-09T17:53:55.716Z,98607.84
2023-01-09T17:56:46.810Z,98611.53
2023-01-09T17:59:29.436Z,98610.06
2023-01-09T18:02:07.330Z,98611.09
2023-01-09T18:04:51.372Z,98606.91
2023-01-09T18:07:26.095Z,98606.41
2023-01-09T18:10:11.812Z,98606.16
2023-01-09T18:12:57.586Z,98597.84
2023-01-09T18:15:36.078Z,98600.09
2023-01-09T18:18:17.273Z,98604.34
2023-01-09T18:21:07.008Z,98595.22
2023-01-09T18:23:42.303Z,98597.53
2023-01-09T18:26:23.439Z,98600.38
2023-01-09T18:29:14.085Z,98593.50
2023-01-09T18:31:55.077Z,98601.63
2023-01-09T18:34:39.035Z,98593.84
2023-01-09T18:37:29.693Z,98592.97
2023-01-09T18:40:05.434Z,98589.72
2023-01-09T18:42:45.451Z,98591.72
2023-01-09T18:45:26.877Z,98577.09
2023-01-09T18:48:07.593Z,98571.13
2023-01-09T18:50:51.589Z,98569.44
2023-01-09T18:53:37.757Z,98560.75
2023-01-09T18:56:12.635Z,98556.41
2023-01-09T18:59:09.095Z,98554.59
2023-01-09T19:01:56.241Z,98552.75
2023-01-09T19:04:46.422Z,98554.59
2023-01-09T19:07:24.158Z,98543.38
2023-01-09T19:10:11.898Z,98546.06
2023-01-09T19:13:00.820Z,98551.47
2023-01-09T19:15:43.762Z,98545.50
2023-01-09T19:18:22.370Z,98553.72
2023-01-09T19:21:03.035Z,98548.19
2023-01-09T19:23:57.854Z,98542.63
2023-01-09T19:26:36.724Z,98537.25
2023-01-09T19:29:20.658Z,98539.53
2023-01-09T19:32:08.765Z,98536.09
2023-01-09T19:34:53.484Z,98543.88
2023-01-09T19:37:45.383Z,98534.97
2023-01-09T19:40:29.769Z,98535.06
2023-01-09T19:43:25.974Z,98528.66
2023-01-09T19:46:06.956Z,98522.25
2023-01-09T19:48:47.691Z,98532.09
2023-01-09T19:51:29.467Z,98533.72
2023-01-09T19:54:13.511Z,98527.53
2023-01-09T19:57:20.042Z,98528.31
2023-01-09T20:00:01.593Z,98544.09
2023-01-09T20:02:57.864Z,98546.38
2023-01-09T20:05:37.519Z,98537.47
2023-01-09T20:08:25.900Z,98537.94
2023-01-09T20:11:18.234Z,98534.88
2023-01-09T20:14:05.656Z,98534.97
2023-01-09T20:16:52.459Z,98524.81
2023-01-09T20:19:42.480Z,98525.41
2023-01-09T20:22:26.381Z,98525.41
2023-01-09T20:25:17.911Z,98514.38
2023-01-09T20:28:24.413Z,98515.03
2023-01-09T20:31:31.505Z,98503.34
2023-01-09T20:34:28.796Z,98506.31
2023-01-09T20:37:11.919Z,98508.88
2023-01-09T20:39:58.982Z,98499.19
2023-01-09T20:42:52.345Z,98497.16
2023-01-09T20:45:31.509Z,98498.84
2023-01-09T20:48:12.210Z,98499.25
2023-01-09T20:50:56.781Z,98497.97
2023-01-09T20:53:39.814Z,98499.91
2023-01-09T20:56:33.223Z,98495.91
2023-01-09T20:59:24.016Z,98487.03
2023-01-09T21:02:01.913Z,98497.16
2023-01-09T21:04:42.946Z,98492.75
2023-01-09T21:07:28.031Z,98497.00
2023-01-09T21:10:11.508Z,98488.66
2023-01-09T21:12:50.661Z,98492.91
2023-01-09T21:15:35.582Z,98490.75
2023-01-09T21:18:15.830Z,98484.16
2023-01-09T21:20:55.764Z,98479.81
2023-01-09T21:23:43.579Z,98490.38
2023-01-09T21:26:32.359Z,98485.06
2023-01-09T21:29:15.757Z,98484.50
2023-01-09T21:32:00.466Z,98481.88
2023-01-09T21:34:48.919Z,98488.88
2023-01-09T21:37:40.374Z,98485.38
2023-01-09T21:40:30.733Z,98489.56
2023-01-09T21:43:40.023Z,98485.00
2023-01-09T21:46:44.745Z,98487.59
2023-01-09T21:49:31.497Z,98480.91
2023-01-09T21:52:24.077Z,98482.03
2023-01-09T21:55:03.814Z,98484.72
2023-01-09T21:57:59.668Z,98483.00
2023-01-09T22:00:50.979Z,98481.28
2023-01-09T22:03:47.827Z,98480.09
2023-01-09T22:06:31.751Z,98482.63
2023-01-09T22:09:12.246Z,98477.19
2023-01-09T22:12:00.703Z,98479.66
2023-01-09T22:14:42.004Z,98485.91
2023-01-09T22:17:40.355Z,98481.28
2023-01-09T22:20:24.345Z,98484.56
2023-01-09T22:23:08.986Z,98471.22
2023-01-09T22:25:44.480Z,98480.06
2023-01-09T22:28:33.982Z,98477.31
2023-01-09T22:31:25.880Z,98468.53
2023-01-09T22:34:21.462Z,98474.66
2023-01-09T22:37:05.299Z,98472.94
2023-01-09T22:39:53.891Z,98480.97
2023-01-09T22:42:41.543Z,98476.31
2023-01-09T22:45:22.365Z,98472.22
2023-01-09T22:48:09.660Z,98466.66
2023-01-09T22:50:53.419Z,98468.63
2023-01-09T22:53:52.392Z,98463.72
2023-01-09T22:56:35.700Z,98469.81
2023-01-09T22:59:27.965Z,98468.31
2023-01-09T23:02:08.746Z,98464.00
2023-01-09T23:04:58.411Z,98461.63
2023-01-09T23:07:33.701Z,98466.84
2023-01-09T23:10:20.421Z,98458.78
2023-01-09T23:13:17.955Z,98466.59
2023-01-09T23:16:02.253Z,98453.19
2023-01-09T23:18:51.429Z,98453.78
2023-01-09T23:21:31.896Z,98455.81
2023-01-09T23:24:09.433Z,98461.47
2023-01-09T23:26:55.026Z,98447.75
2023-01-09T23:29:38.802Z,98457.88
2023-01-09T23:32:24.432Z,98460.56
2023-01-09T23:35:08.492Z,98445.75
2023-01-09T23:38:03.074Z,98450.44
2023-01-09T23:40:51.608Z,98444.00
2023-01-09T23:43:38.008Z,98456.09
2023-01-09T23:46:22.639Z,98455.84
2023-01-09T23:49:03.665Z,98453.84
2023-01-09T23:51:51.811Z,98447.72
2023-01-09T23:54:43.085Z,98445.34
2023-01-09T23:57:27.560Z,98450.09
